Jacksonville International Airport
KJAX : now visible

Airfield :











YOU CAN JOIN US ON...

 
LOGIN :

Register | Disclaimer

   EN    FR    IT 

 









Legend :    VFR   Marginal VFR   IFR   Intensive IFR   Very Intensive IFR
Visi :
Ceiling :
>= 8 km
>= 3000ft
5 to 8 km
1000 to 3000 ft
1500m to 5 km
500 to 1000 ft
800 to 1500m
200 to 500 ft
< 800m
< 200 ft
Symbols :   Thunderstorms  Fog  Heavy snow  Heavy precipitations  Wind > 20 kt







- Airport Elevation : 30 ft
- IATA code : JAX


KJAX - Jacksonville International

CURRENT METAR :
  • 201956Z 08010G17KT 10SM FEW045 SCT070 29/18 A3015 RMK AO2 SLP209 T02940183

EXPIRED METARs :
  • 201856Z 08015G19KT 10SM FEW048 SCT070 SCT250 30/18 A3017 RMK AO2 SLP215 T03000178
  • 201756Z 08014G21KT 10SM FEW048 SCT250 30/17 A3019 RMK AO2 SLP222 60000 T03000172 10306 20217 58002

TAF KJAX
Valid from the 20 at 18:00 until the 21 at 18:00 UTC


201726Z 2018/2118 07015G22KT P6SM VCSH SCT025 BKN050
FM210000 07008KT P6SM VCSH SCT020 SCT040
FM210600 03004KT P6SM SCT015 SCT030
FM211400 08014G21KT P6SM SCT020 SCT040
No reported NOTAMs for that airfield.



MET'MAP, your aeronautical weather chart ! - Copyright ORBIFLY December 2007 - Disclaimer

ORBIFLY MET'MAP TEAM :

Programming & Development : Alexandra Zaïnal
Concept & Development : Baudouin d'Aumeries
Co-Development & Prog : Marc-Olivier Méhu
Technical & hardware support : Manuel Goepfert

Contact : metmap@orbifly.com




SOURCES & CREDITS :

   NOAA       Earth
Advisory